Alma, KS

7:42 AM CDT on August 05, 2015 (GMT -0500)
FlintHillsAlmaKS | | Change Station
CLOSE
Current Station
Personal Weather Station
Location: Alma, KS
Elevation: 1135 ft
Nearby Weather Stations

Elev 1135 ft 38.96 °N, 96.25 °W | Updated 16 seconds ago

Rain
Rain
68.9 °F
Feels Like 68.9 °F
N
0.9
Wind Variable Wind from ESE
Gusts 2.5 mph

Today
High -- | Low -- °F
--% Chance of Precip.
Yesterday
High -- | Low -- °F
Precip. -- in
6:29 AM 8:32 PM
Waning Gibbous, 67% visible
Pressure 29.94 in
Visibility 6.0 miles
Clouds Mostly Cloudy 1000 ft
Mostly Cloudy 2300 ft
Mostly Cloudy 2800 ft
Dew Point 69 °F
Humidity 99%
Rainfall 0.20 in
Snow Depth Not available.
UV 0.0 out of 12
Pollen .80 out of 12
Air Quality Not available.
Flu Activity Not available.
METAR KMHK 051152Z 33003KT 6SM -RA BR BKN010 BKN023 BKN028 21/20 A2996 RMK AO2 TSE1055 CIG 008V013 SLP136 P0006 60020 70057 T02110200 10222 20206 53000

More Conditions Fewer Conditions

Pressure 29.94 in
Visibility 6.0 miles
Clouds Mostly Cloudy 1000 ft
Mostly Cloudy 2300 ft
Mostly Cloudy 2800 ft
Dew Point 69 °F
Humidity 99%
Rainfall 0.20 in
Snow Depth Not available.
UV 0.0 out of 12
Pollen .80 out of 12
Air Quality Not available.
Flu Activity Not available.
METAR KMHK 051152Z 33003KT 6SM -RA BR BKN010 BKN023 BKN028 21/20 A2996 RMK AO2 TSE1055 CIG 008V013 SLP136 P0006 60020 70057 T02110200 10222 20206 53000

More Conditions Fewer Conditions

10-Day Weather Forecast

×

Almanac

Astronomy

Aug. 05, 2015 Rise Set
Actual Time
Civil Twilight
Nautical Twilight
Astronomical Twilight
Moon
Length of Visible Light
Length of Day
Tomorrow will be .
, % of the Moon is Illuminated

Today's Extremes

State Highs State Lows

Community

WunderPhotos

Upload Photos

1,844,175 photos uploaded!

WunderBlogs® & News

Nearby

Air Quality

  Air Quality AQ Index Pollutant
Not available.

Snow Depth

Station Depth Elevation

Earthquake Activity

City Distance Mag. Time & Date
Minimum magnitude displayed is 2.5.

Coastal Water Temperatures

Place Temperature

Stations

Nearby Weather Stations

Station Location Temp. Windchill Dew Point Humidity Wind Precip. Elev Updated Type